Time;durP1;ratioP1;P1;durP2;ratioP2;P2;SDS_P1;SDS_P2;PMS_P1;PMS_P2;Temp;Humidity;BMP_temperature;BMP_pressure;BME280_temperature;BME280_humidity;BME280_pressure;Samples;Min_cycle;Max_cycle;Signal;HPM_P1;HPM_P2
2022/10/10 00:00:43;;;;;;;;;;;12.30;88.20;;;;;;5044791;28;19991;-81
2022/10/10 00:03:11;;;;;;;;;;;12.30;88.20;;;;;;5044774;28;19972;-79
2022/10/10 00:05:38;;;;;;;;;;;12.30;88.30;;;;;;5043521;28;20368;-78
2022/10/10 00:08:05;;;;;;;;;;;12.20;88.40;;;;;;5044306;28;20395;-80
2022/10/10 00:10:31;;;;;;;;;;;12.20;88.40;;;;;;5047189;28;19980;-81
2022/10/10 00:12:58;;;;;;;;;;;12.20;88.50;;;;;;5043069;28;19979;-79
2022/10/10 00:15:25;;;;;;;;;;;12.20;88.60;;;;;;5035697;28;19975;-79
2022/10/10 00:17:51;;;;;;;;;;;12.20;88.70;;;;;;5043076;28;19987;-79
2022/10/10 00:20:20;;;;;;;;;;;12.10;88.60;;;;;;5044565;28;20007;-78
2022/10/10 00:22:46;;;;;;;;;;;12.10;88.70;;;;;;5043877;28;19978;-78
2022/10/10 00:25:13;;;;;;;;;;;12.10;88.80;;;;;;5044547;28;20466;-79
2022/10/10 00:27:40;;;;;;;;;;;12.10;88.80;;;;;;5046677;28;20739;-79
2022/10/10 00:30:08;;;;;;;;;;;12.10;88.90;;;;;;5045259;28;19995;-79
2022/10/10 00:32:34;;;;;;;;;;;12.00;89.00;;;;;;5041338;28;20790;-80
2022/10/10 00:35:01;;;;;;;;;;;12.00;89.80;;;;;;5043333;28;19972;-79
2022/10/10 00:37:29;;;;;;;;;;;12.00;89.20;;;;;;5048088;28;19968;-79
2022/10/10 00:39:55;;;;;;;;;;;12.00;89.20;;;;;;5045397;28;19996;-79
2022/10/10 00:42:22;;;;;;;;;;;12.00;89.30;;;;;;5046511;28;19976;-79
2022/10/10 00:45:03;;;;;;;;;;;12.00;89.30;;;;;;5041199;28;20506;-79
2022/10/10 00:47:30;;;;;;;;;;;12.00;89.30;;;;;;5029826;28;19988;-79
2022/10/10 00:49:58;;;;;;;;;;;12.00;89.40;;;;;;5045281;28;20206;-77
2022/10/10 00:52:25;;;;;;;;;;;11.90;89.50;;;;;;5045063;28;19976;-80
2022/10/10 00:54:53;;;;;;;;;;;11.90;89.50;;;;;;5045801;28;19980;-79
2022/10/10 00:57:19;;;;;;;;;;;12.00;89.70;;;;;;5042249;28;19979;-79
2022/10/10 00:59:46;;;;;;;;;;;11.90;89.70;;;;;;5044982;28;19991;-78
2022/10/10 01:02:12;;;;;;;;;;;11.90;89.70;;;;;;5042208;28;20463;-79
2022/10/10 01:04:41;;;;;;;;;;;11.90;89.70;;;;;;5046191;28;19976;-80
2022/10/10 01:07:09;;;;;;;;;;;11.80;89.80;;;;;;5045520;28;20467;-79
2022/10/10 01:09:37;;;;;;;;;;;11.80;89.90;;;;;;5041328;28;20003;-79
2022/10/10 01:12:11;;;;;;;;;;;11.80;89.90;;;;;;5042752;28;20034;-79
2022/10/10 01:14:39;;;;;;;;;;;11.80;90.00;;;;;;5044805;28;19983;-79
2022/10/10 01:17:08;;;;;;;;;;;11.70;89.90;;;;;;5041553;28;20000;-80
2022/10/10 01:20:00;;;;;;;;;;;11.80;90.00;;;;;;5040890;28;19992;-79
2022/10/10 01:22:29;;;;;;;;;;;11.70;90.00;;;;;;5041100;28;19984;-79
2022/10/10 01:24:57;;;;;;;;;;;11.70;90.00;;;;;;5044248;28;20002;-79
2022/10/10 01:27:29;;;;;;;;;;;11.70;90.10;;;;;;5041190;28;20511;-80
2022/10/10 01:29:58;;;;;;;;;;;11.70;90.10;;;;;;5039857;28;19992;-78
2022/10/10 01:32:29;;;;;;;;;;;11.70;90.10;;;;;;5040399;28;19992;-79
2022/10/10 01:34:59;;;;;;;;;;;11.70;90.10;;;;;;5036361;28;19982;-79
2022/10/10 01:37:28;;;;;;;;;;;11.70;90.20;;;;;;5041971;28;19976;-79
2022/10/10 01:39:58;;;;;;;;;;;11.60;90.20;;;;;;5040995;28;19999;-79
2022/10/10 01:42:28;;;;;;;;;;;11.60;90.20;;;;;;5047036;28;20722;-80
2022/10/10 01:44:55;;;;;;;;;;;11.60;90.20;;;;;;5045307;28;19983;-78
2022/10/10 01:47:23;;;;;;;;;;;11.60;90.30;;;;;;5042975;28;20002;-79
2022/10/10 01:49:51;;;;;;;;;;;11.60;90.30;;;;;;5043376;28;19995;-79
2022/10/10 01:52:22;;;;;;;;;;;11.60;90.30;;;;;;5045846;28;20650;-80
2022/10/10 01:54:52;;;;;;;;;;;11.60;90.40;;;;;;5047722;28;19971;-79
2022/10/10 01:57:24;;;;;;;;;;;11.60;90.40;;;;;;5044987;28;19999;-78
2022/10/10 01:59:59;;;;;;;;;;;11.50;90.40;;;;;;5048423;28;20420;-79
2022/10/10 02:02:32;;;;;;;;;;;11.50;90.40;;;;;;5044558;28;20033;-79
2022/10/10 02:05:01;;;;;;;;;;;11.50;90.80;;;;;;5044548;28;19995;-81
2022/10/10 02:07:31;;;;;;;;;;;11.50;90.50;;;;;;5047418;28;20479;-80
2022/10/10 02:09:59;;;;;;;;;;;11.50;90.50;;;;;;5048353;28;20034;-80
2022/10/10 02:12:26;;;;;;;;;;;11.50;90.60;;;;;;5046545;28;19976;-79
2022/10/10 02:14:56;;;;;;;;;;;11.50;90.50;;;;;;5044656;28;20547;-80
2022/10/10 02:17:24;;;;;;;;;;;11.50;90.50;;;;;;5042028;28;20003;-79
2022/10/10 02:19:53;;;;;;;;;;;11.40;90.50;;;;;;5042063;28;19999;-79
2022/10/10 02:22:20;;;;;;;;;;;11.40;90.50;;;;;;5043086;28;19983;-79
2022/10/10 02:24:47;;;;;;;;;;;11.40;90.60;;;;;;5048655;28;20030;-80
2022/10/10 02:27:17;;;;;;;;;;;11.40;90.60;;;;;;5045803;28;19980;-80
2022/10/10 02:29:45;;;;;;;;;;;11.40;90.60;;;;;;5043695;28;19995;-79
2022/10/10 02:32:14;;;;;;;;;;;11.40;90.70;;;;;;5041109;28;20002;-80
2022/10/10 02:34:42;;;;;;;;;;;11.40;90.70;;;;;;5039429;28;19972;-78
2022/10/10 02:37:12;;;;;;;;;;;11.40;91.10;;;;;;5043401;28;20066;-79
2022/10/10 02:39:41;;;;;;;;;;;11.40;90.80;;;;;;5047927;28;20090;-79
2022/10/10 02:42:08;;;;;;;;;;;11.40;90.80;;;;;;5044107;28;19995;-78
2022/10/10 02:44:35;;;;;;;;;;;11.40;90.80;;;;;;5041870;28;19979;-78
2022/10/10 02:47:01;;;;;;;;;;;11.30;90.80;;;;;;5045214;28;19995;-79
2022/10/10 02:49:29;;;;;;;;;;;11.30;90.80;;;;;;5041097;28;19995;-79
2022/10/10 02:51:56;;;;;;;;;;;11.30;90.90;;;;;;5045943;28;20722;-79
2022/10/10 02:54:24;;;;;;;;;;;11.30;90.90;;;;;;5045908;28;19991;-79
2022/10/10 02:56:50;;;;;;;;;;;11.30;91.00;;;;;;5044509;28;19978;-79
2022/10/10 02:59:17;;;;;;;;;;;11.30;91.00;;;;;;5046257;28;20784;-79
2022/10/10 03:01:44;;;;;;;;;;;11.30;91.00;;;;;;5043186;28;19995;-80
2022/10/10 03:04:10;;;;;;;;;;;11.20;91.00;;;;;;5045121;28;19982;-79
2022/10/10 03:06:37;;;;;;;;;;;11.20;91.10;;;;;;5046288;28;19984;-78
2022/10/10 03:09:05;;;;;;;;;;;11.20;91.10;;;;;;5044323;28;19992;-79
2022/10/10 03:11:32;;;;;;;;;;;11.20;91.10;;;;;;5043234;28;19980;-78
2022/10/10 03:13:59;;;;;;;;;;;11.20;91.10;;;;;;5042933;28;19976;-79
2022/10/10 03:16:26;;;;;;;;;;;11.20;91.10;;;;;;5041759;28;19992;-79
2022/10/10 03:18:52;;;;;;;;;;;11.20;91.20;;;;;;5035612;28;19992;-79
2022/10/10 03:21:19;;;;;;;;;;;11.20;91.20;;;;;;5036133;28;20075;-78
2022/10/10 03:23:45;;;;;;;;;;;11.20;91.20;;;;;;5047788;28;19979;-79
2022/10/10 03:26:12;;;;;;;;;;;11.20;91.30;;;;;;5037169;28;19980;-79
2022/10/10 03:28:40;;;;;;;;;;;11.20;91.30;;;;;;5047032;28;19995;-78
2022/10/10 03:31:06;;;;;;;;;;;11.10;91.30;;;;;;5036312;28;19999;-79
2022/10/10 03:33:34;;;;;;;;;;;11.10;91.30;;;;;;5038499;28;20363;-79
2022/10/10 03:36:00;;;;;;;;;;;11.20;91.30;;;;;;5040973;28;19975;-79
2022/10/10 03:38:27;;;;;;;;;;;11.10;91.30;;;;;;5036817;28;19992;-78
2022/10/10 03:40:53;;;;;;;;;;;11.10;91.30;;;;;;5041604;28;20118;-78
2022/10/10 03:43:20;;;;;;;;;;;11.10;91.40;;;;;;5040976;28;20589;-79
2022/10/10 03:45:48;;;;;;;;;;;11.10;91.40;;;;;;5044416;28;20256;-79
2022/10/10 03:48:14;;;;;;;;;;;11.10;91.40;;;;;;5035755;28;19987;-78
2022/10/10 03:50:41;;;;;;;;;;;11.10;91.50;;;;;;5043654;28;20471;-79
2022/10/10 03:53:08;;;;;;;;;;;11.10;91.50;;;;;;5045152;28;20010;-77
2022/10/10 03:55:34;;;;;;;;;;;11.00;91.50;;;;;;5042132;28;19976;-77
2022/10/10 03:58:01;;;;;;;;;;;11.00;91.50;;;;;;5044108;28;19980;-78
2022/10/10 04:00:28;;;;;;;;;;;11.00;91.50;;;;;;5043754;28;20006;-76
2022/10/10 04:02:55;;;;;;;;;;;11.00;91.60;;;;;;5042728;28;19976;-78
2022/10/10 04:05:22;;;;;;;;;;;11.00;91.60;;;;;;5041408;28;19975;-79
2022/10/10 04:07:48;;;;;;;;;;;11.00;91.60;;;;;;5042320;28;19976;-78
2022/10/10 04:10:15;;;;;;;;;;;10.90;91.60;;;;;;5043612;28;20003;-78
2022/10/10 04:12:42;;;;;;;;;;;10.90;91.70;;;;;;5043873;28;19972;-78
2022/10/10 04:15:09;;;;;;;;;;;10.90;91.70;;;;;;5043676;28;20001;-78
2022/10/10 04:17:35;;;;;;;;;;;10.90;91.70;;;;;;5044228;28;19979;-77
2022/10/10 04:20:03;;;;;;;;;;;11.00;91.70;;;;;;5044628;28;20078;-79
2022/10/10 04:22:30;;;;;;;;;;;11.00;91.70;;;;;;5043283;28;19992;-79
2022/10/10 04:24:57;;;;;;;;;;;10.90;91.70;;;;;;5044014;28;19980;-79
2022/10/10 04:27:24;;;;;;;;;;;10.90;92.00;;;;;;5034323;28;19980;-81
2022/10/10 04:29:50;;;;;;;;;;;10.90;91.80;;;;;;5038250;28;20746;-79
2022/10/10 04:32:17;;;;;;;;;;;10.90;91.80;;;;;;5035865;28;20463;-78
2022/10/10 04:34:43;;;;;;;;;;;10.90;91.80;;;;;;5042807;28;20383;-78
2022/10/10 04:37:11;;;;;;;;;;;10.90;91.80;;;;;;5042993;28;19975;-79
2022/10/10 04:39:38;;;;;;;;;;;10.80;91.80;;;;;;5043368;28;19992;-79
2022/10/10 04:42:05;;;;;;;;;;;10.90;91.90;;;;;;5039962;28;19996;-77
2022/10/10 04:44:31;;;;;;;;;;;10.80;91.90;;;;;;5040310;28;19980;-79
2022/10/10 04:46:58;;;;;;;;;;;10.80;91.90;;;;;;5034121;28;20376;-77
2022/10/10 04:49:24;;;;;;;;;;;10.80;91.90;;;;;;5040173;28;20636;-78
2022/10/10 04:51:51;;;;;;;;;;;10.80;92.00;;;;;;5042205;28;19976;-78
2022/10/10 04:54:19;;;;;;;;;;;10.80;92.00;;;;;;5043810;28;21866;-79
2022/10/10 04:56:46;;;;;;;;;;;10.80;92.00;;;;;;5041898;28;20386;-79
2022/10/10 04:59:12;;;;;;;;;;;10.80;92.00;;;;;;5038982;28;20105;-78
2022/10/10 05:01:39;;;;;;;;;;;10.80;92.00;;;;;;5040621;28;19996;-79
2022/10/10 05:04:06;;;;;;;;;;;10.80;92.00;;;;;;5041242;28;19987;-78
2022/10/10 05:06:32;;;;;;;;;;;10.70;92.00;;;;;;5042269;28;20758;-78
2022/10/10 05:08:59;;;;;;;;;;;10.80;92.00;;;;;;5039140;28;20018;-77
2022/10/10 05:11:27;;;;;;;;;;;10.70;92.00;;;;;;5041294;28;20525;-77
2022/10/10 05:13:53;;;;;;;;;;;10.70;92.00;;;;;;5045216;28;20066;-78
2022/10/10 05:16:20;;;;;;;;;;;10.70;92.10;;;;;;5049014;28;19992;-78
2022/10/10 05:18:46;;;;;;;;;;;10.70;92.10;;;;;;5039007;28;19991;-68
2022/10/10 05:21:13;;;;;;;;;;;10.80;92.10;;;;;;5037489;28;19996;-68
2022/10/10 05:23:40;;;;;;;;;;;10.70;92.20;;;;;;5047352;28;19979;-68
2022/10/10 05:26:07;;;;;;;;;;;10.70;92.20;;;;;;5043022;28;20173;-68
2022/10/10 05:28:35;;;;;;;;;;;10.70;92.20;;;;;;5046920;28;19992;-68
2022/10/10 05:31:02;;;;;;;;;;;10.70;92.20;;;;;;5036135;28;20004;-68
2022/10/10 05:33:28;;;;;;;;;;;10.60;92.20;;;;;;5033419;28;20391;-68
2022/10/10 05:36:00;;;;;;;;;;;10.60;92.20;;;;;;5040458;28;20175;-68
2022/10/10 05:38:27;;;;;;;;;;;10.60;92.30;;;;;;5039413;28;20019;-68
2022/10/10 05:40:54;;;;;;;;;;;10.60;92.30;;;;;;5046349;28;20073;-68
2022/10/10 05:43:20;;;;;;;;;;;10.60;92.30;;;;;;5044731;28;20347;-68
2022/10/10 05:45:48;;;;;;;;;;;10.60;92.30;;;;;;5044309;28;20042;-68
2022/10/10 05:48:15;;;;;;;;;;;10.60;92.40;;;;;;5039967;28;19980;-68
2022/10/10 05:50:45;;;;;;;;;;;10.60;92.40;;;;;;5042854;28;20038;-68
2022/10/10 05:53:12;;;;;;;;;;;10.60;92.40;;;;;;5043820;28;19980;-68
2022/10/10 05:55:38;;;;;;;;;;;10.50;92.40;;;;;;5044022;28;20433;-68
2022/10/10 05:58:05;;;;;;;;;;;10.60;92.40;;;;;;5044921;28;20225;-68
2022/10/10 06:00:32;;;;;;;;;;;10.60;92.50;;;;;;5043683;28;20463;-68
2022/10/10 06:02:59;;;;;;;;;;;10.60;92.50;;;;;;5042415;28;19987;-68
2022/10/10 06:05:26;;;;;;;;;;;10.60;92.50;;;;;;5041266;28;19983;-68
2022/10/10 06:07:53;;;;;;;;;;;10.60;92.50;;;;;;5040182;28;20435;-76
2022/10/10 06:10:19;;;;;;;;;;;10.60;92.50;;;;;;5041604;28;19998;-77
2022/10/10 06:12:46;;;;;;;;;;;10.60;92.90;;;;;;5044088;28;20033;-78
2022/10/10 06:15:13;;;;;;;;;;;10.60;92.50;;;;;;5042126;28;19987;-78
2022/10/10 06:17:39;;;;;;;;;;;10.50;92.50;;;;;;5042737;28;20633;-76
2022/10/10 06:20:08;;;;;;;;;;;10.60;92.60;;;;;;5041412;28;20007;-78
2022/10/10 06:22:35;;;;;;;;;;;10.60;92.60;;;;;;5042419;28;20090;-77
2022/10/10 06:25:01;;;;;;;;;;;10.50;92.60;;;;;;5045429;28;19984;-78
2022/10/10 06:27:28;;;;;;;;;;;10.60;92.70;;;;;;5045589;28;19975;-77
2022/10/10 06:29:54;;;;;;;;;;;10.50;92.70;;;;;;5047173;28;19995;-77
2022/10/10 06:32:21;;;;;;;;;;;10.60;92.80;;;;;;5039114;28;19992;-78
2022/10/10 06:34:48;;;;;;;;;;;10.60;92.80;;;;;;5044112;28;19976;-77
2022/10/10 06:37:15;;;;;;;;;;;10.60;92.80;;;;;;5047005;28;19986;-77
2022/10/10 06:39:42;;;;;;;;;;;10.60;92.90;;;;;;5044186;28;20637;-77
2022/10/10 06:42:09;;;;;;;;;;;10.60;92.90;;;;;;5042375;28;19998;-76
2022/10/10 06:44:35;;;;;;;;;;;10.60;92.90;;;;;;5043599;28;19979;-78
2022/10/10 06:47:02;;;;;;;;;;;10.60;92.90;;;;;;5036366;28;20007;-78
2022/10/10 06:49:28;;;;;;;;;;;10.60;92.90;;;;;;5040033;28;19998;-78
2022/10/10 06:51:55;;;;;;;;;;;10.60;92.90;;;;;;5045243;28;20061;-79
2022/10/10 06:54:23;;;;;;;;;;;10.60;92.90;;;;;;5042971;28;19977;-78
2022/10/10 06:56:49;;;;;;;;;;;10.60;92.90;;;;;;5039957;28;19979;-78
2022/10/10 06:59:16;;;;;;;;;;;10.60;93.00;;;;;;5046229;28;19996;-77
2022/10/10 07:01:43;;;;;;;;;;;10.60;93.00;;;;;;5045463;28;20015;-78
2022/10/10 07:04:09;;;;;;;;;;;10.70;93.00;;;;;;5034990;28;20074;-77
2022/10/10 07:06:36;;;;;;;;;;;10.60;93.00;;;;;;5045028;28;19982;-77
2022/10/10 07:09:03;;;;;;;;;;;10.70;93.00;;;;;;5042374;28;20797;-77
2022/10/10 07:11:31;;;;;;;;;;;10.70;93.00;;;;;;5039853;28;19976;-77
2022/10/10 07:13:57;;;;;;;;;;;10.70;93.00;;;;;;5038031;28;20058;-77
2022/10/10 07:16:24;;;;;;;;;;;10.70;93.00;;;;;;5041793;28;19987;-77
2022/10/10 07:18:51;;;;;;;;;;;10.70;93.00;;;;;;5043982;28;19991;-77
2022/10/10 07:21:18;;;;;;;;;;;10.70;93.00;;;;;;5036760;28;19980;-76
2022/10/10 07:23:44;;;;;;;;;;;10.70;93.00;;;;;;5044008;28;19983;-77
2022/10/10 07:26:12;;;;;;;;;;;10.70;93.00;;;;;;5044123;28;19976;-77
2022/10/10 07:28:40;;;;;;;;;;;10.70;93.10;;;;;;5041268;28;20090;-77
2022/10/10 07:31:10;;;;;;;;;;;10.70;93.10;;;;;;5039999;28;21337;-77
2022/10/10 07:33:37;;;;;;;;;;;10.70;93.10;;;;;;5033385;28;19983;-77
2022/10/10 07:36:04;;;;;;;;;;;10.70;93.10;;;;;;5044120;28;19980;-77
2022/10/10 07:38:31;;;;;;;;;;;10.70;93.20;;;;;;5046444;28;19992;-77
2022/10/10 07:40:57;;;;;;;;;;;10.70;93.20;;;;;;5040779;28;19983;-78
2022/10/10 07:43:24;;;;;;;;;;;10.70;93.50;;;;;;5038934;28;19992;-77
2022/10/10 07:45:52;;;;;;;;;;;10.80;93.30;;;;;;5042266;28;20637;-78
2022/10/10 07:48:18;;;;;;;;;;;10.80;93.30;;;;;;5038294;28;19987;-77
2022/10/10 07:50:45;;;;;;;;;;;10.80;93.30;;;;;;5039788;28;19983;-77
2022/10/10 07:53:11;;;;;;;;;;;10.80;93.30;;;;;;5038792;28;20576;-77
2022/10/10 07:55:38;;;;;;;;;;;10.70;93.30;;;;;;5038947;28;20379;-77
2022/10/10 07:58:05;;;;;;;;;;;10.80;93.40;;;;;;5043874;28;19980;-77
2022/10/10 08:00:32;;;;;;;;;;;10.80;93.40;;;;;;5039435;28;19995;-77
2022/10/10 08:03:00;;;;;;;;;;;10.80;93.40;;;;;;5036695;28;20086;-76
2022/10/10 08:05:26;;;;;;;;;;;10.80;93.40;;;;;;5036647;28;19983;-76
2022/10/10 08:07:53;;;;;;;;;;;10.80;93.40;;;;;;5043582;28;19976;-77
2022/10/10 08:10:19;;;;;;;;;;;10.80;93.40;;;;;;5039483;28;19996;-76
2022/10/10 08:12:46;;;;;;;;;;;10.70;93.30;;;;;;5039549;28;19975;-77
2022/10/10 08:15:12;;;;;;;;;;;10.80;93.30;;;;;;5042093;28;20464;-77
2022/10/10 08:17:39;;;;;;;;;;;10.80;93.30;;;;;;5038541;28;20002;-77
2022/10/10 08:20:07;;;;;;;;;;;10.80;93.20;;;;;;5038012;28;20582;-76
2022/10/10 08:22:34;;;;;;;;;;;10.80;93.20;;;;;;5037351;28;20538;-76
2022/10/10 08:25:01;;;;;;;;;;;10.90;93.20;;;;;;5041146;28;19975;-77
2022/10/10 08:27:27;;;;;;;;;;;10.90;93.20;;;;;;5045006;28;20275;-77
2022/10/10 08:29:54;;;;;;;;;;;10.90;93.20;;;;;;5038923;28;21321;-76
2022/10/10 08:32:20;;;;;;;;;;;10.90;93.30;;;;;;5031153;28;19992;-77
2022/10/10 08:34:47;;;;;;;;;;;11.00;93.40;;;;;;5035439;28;19983;-76
2022/10/10 08:37:15;;;;;;;;;;;11.00;93.30;;;;;;5039091;28;20746;-76
2022/10/10 08:39:41;;;;;;;;;;;11.00;93.20;;;;;;5041989;28;20375;-77
2022/10/10 08:42:13;;;;;;;;;;;11.00;93.20;;;;;;5036141;28;19988;-77
2022/10/10 08:44:40;;;;;;;;;;;11.10;93.30;;;;;;5037212;28;19999;-76
2022/10/10 08:47:11;;;;;;;;;;;11.10;93.30;;;;;;5038797;28;20003;-77
2022/10/10 08:49:40;;;;;;;;;;;11.10;93.30;;;;;;5032396;28;20004;-76
2022/10/10 08:52:09;;;;;;;;;;;11.10;93.30;;;;;;5035090;28;19984;-76
2022/10/10 08:54:37;;;;;;;;;;;11.20;93.40;;;;;;5036216;28;20058;-76
2022/10/10 08:57:05;;;;;;;;;;;11.20;93.40;;;;;;5039089;28;20558;-76
2022/10/10 08:59:34;;;;;;;;;;;11.30;93.40;;;;;;5038257;28;19991;-75
2022/10/10 09:02:16;;;;;;;;;;;11.30;93.40;;;;;;5035754;28;20011;-77
2022/10/10 09:04:42;;;;;;;;;;;11.30;93.30;;;;;;5041876;28;19971;-75
2022/10/10 09:07:14;;;;;;;;;;;11.40;93.50;;;;;;5040295;28;19990;-77
2022/10/10 09:09:48;;;;;;;;;;;11.40;93.80;;;;;;5034456;28;19992;-77
2022/10/10 09:12:21;;;;;;;;;;;11.40;93.50;;;;;;5035488;28;19983;-77
2022/10/10 09:14:50;;;;;;;;;;;11.50;93.40;;;;;;5040454;28;19976;-76
2022/10/10 09:17:22;;;;;;;;;;;11.40;93.20;;;;;;5039831;28;20007;-78
2022/10/10 09:19:53;;;;;;;;;;;11.50;93.10;;;;;;5039172;28;19991;-78
2022/10/10 09:22:22;;;;;;;;;;;11.60;93.00;;;;;;5036001;28;19988;-76
2022/10/10 09:24:52;;;;;;;;;;;11.70;92.90;;;;;;5041250;28;20440;-76
2022/10/10 09:27:22;;;;;;;;;;;11.80;92.80;;;;;;5042700;28;19996;-77
2022/10/10 09:29:51;;;;;;;;;;;11.90;92.60;;;;;;5041336;28;20010;-76
2022/10/10 09:32:20;;;;;;;;;;;12.00;92.80;;;;;;5035492;28;20404;-75
2022/10/10 09:34:48;;;;;;;;;;;12.00;92.30;;;;;;5034785;28;19980;-78
2022/10/10 09:37:17;;;;;;;;;;;12.20;92.30;;;;;;5040579;28;19979;-75
2022/10/10 09:39:45;;;;;;;;;;;12.20;92.20;;;;;;5040339;28;19994;-77
2022/10/10 09:42:14;;;;;;;;;;;12.30;92.10;;;;;;5034950;28;19975;-76
2022/10/10 09:44:42;;;;;;;;;;;12.40;92.00;;;;;;5038726;28;19994;-77
2022/10/10 09:47:10;;;;;;;;;;;12.50;92.00;;;;;;5032440;28;20458;-76
2022/10/10 09:49:36;;;;;;;;;;;12.60;91.90;;;;;;5032076;28;19991;-76
2022/10/10 09:52:07;;;;;;;;;;;12.70;91.80;;;;;;5040413;28;20368;-77
2022/10/10 09:54:33;;;;;;;;;;;12.70;91.70;;;;;;5033135;28;19976;-77
2022/10/10 09:57:00;;;;;;;;;;;12.80;91.60;;;;;;5037732;28;19983;-77
2022/10/10 09:59:38;;;;;;;;;;;12.90;91.40;;;;;;5038086;28;19992;-76
2022/10/10 10:02:11;;;;;;;;;;;13.00;91.30;;;;;;5036961;28;19999;-76
2022/10/10 10:04:38;;;;;;;;;;;13.10;91.20;;;;;;5043768;28;19971;-76
2022/10/10 10:07:05;;;;;;;;;;;13.20;91.00;;;;;;5043882;28;19972;-77
2022/10/10 10:09:32;;;;;;;;;;;13.30;91.00;;;;;;5042725;28;20035;-77
2022/10/10 10:11:59;;;;;;;;;;;13.40;90.90;;;;;;5037010;28;19972;-77
2022/10/10 10:14:27;;;;;;;;;;;13.40;90.70;;;;;;5039543;28;19983;-76
2022/10/10 10:16:56;;;;;;;;;;;13.60;90.70;;;;;;5040534;28;19992;-77
2022/10/10 10:19:30;;;;;;;;;;;13.60;90.60;;;;;;5040417;28;19992;-77
2022/10/10 10:21:56;;;;;;;;;;;13.70;90.40;;;;;;5039337;28;19978;-76
2022/10/10 10:24:28;;;;;;;;;;;13.70;90.30;;;;;;5042907;28;19992;-76
2022/10/10 10:26:55;;;;;;;;;;;13.80;90.20;;;;;;5043928;28;20290;-77
2022/10/10 10:29:29;;;;;;;;;;;13.90;90.10;;;;;;5043357;28;19998;-76
2022/10/10 10:32:00;;;;;;;;;;;14.00;90.00;;;;;;5037539;28;20038;-75
2022/10/10 10:34:36;;;;;;;;;;;14.10;89.90;;;;;;5044115;28;19987;-77
2022/10/10 10:37:06;;;;;;;;;;;14.10;89.80;;;;;;5041990;28;19987;-77
2022/10/10 10:39:38;;;;;;;;;;;14.30;90.00;;;;;;5040205;28;20593;-77
2022/10/10 10:42:11;;;;;;;;;;;14.40;89.70;;;;;;5040058;28;20633;-77
2022/10/10 10:44:41;;;;;;;;;;;14.40;89.50;;;;;;5034744;28;20512;-77
2022/10/10 10:47:16;;;;;;;;;;;14.50;89.20;;;;;;5035364;28;19999;-76
2022/10/10 10:49:45;;;;;;;;;;;14.60;89.00;;;;;;5041647;28;19987;-77
2022/10/10 10:52:22;;;;;;;;;;;14.60;88.70;;;;;;5041444;28;19987;-76
2022/10/10 10:55:13;;;;;;;;;;;14.70;88.60;;;;;;5040253;28;19987;-77
2022/10/10 10:57:42;;;;;;;;;;;14.80;88.50;;;;;;5031493;28;19975;-77
2022/10/10 11:00:11;;;;;;;;;;;14.90;88.10;;;;;;5041655;28;20001;-77
2022/10/10 11:02:42;;;;;;;;;;;15.00;87.90;;;;;;5040605;28;19987;-77
2022/10/10 11:05:26;;;;;;;;;;;15.10;87.80;;;;;;5039148;28;20073;-76
2022/10/10 11:07:57;;;;;;;;;;;15.10;87.60;;;;;;5033026;28;20444;-77
2022/10/10 11:10:29;;;;;;;;;;;15.20;87.50;;;;;;5038151;28;20398;-76
2022/10/10 11:13:02;;;;;;;;;;;15.20;87.10;;;;;;5037467;28;19976;-78
2022/10/10 11:15:32;;;;;;;;;;;15.30;86.80;;;;;;5041840;28;20671;-77
2022/10/10 11:18:01;;;;;;;;;;;15.40;86.60;;;;;;5037958;28;20352;-76
2022/10/10 11:20:29;;;;;;;;;;;15.50;86.40;;;;;;5037352;28;19999;-77
2022/10/10 11:22:58;;;;;;;;;;;15.50;86.10;;;;;;5036242;28;20006;-77
2022/10/10 11:25:26;;;;;;;;;;;15.60;86.20;;;;;;5044879;28;20009;-77
2022/10/10 11:27:55;;;;;;;;;;;15.70;86.40;;;;;;5041971;28;19979;-76
2022/10/10 11:30:23;;;;;;;;;;;15.70;86.30;;;;;;5037235;28;20046;-77
2022/10/10 11:32:52;;;;;;;;;;;15.80;86.20;;;;;;5036674;28;19980;-77
2022/10/10 11:35:25;;;;;;;;;;;15.90;85.90;;;;;;5038595;28;19987;-76
2022/10/10 11:37:54;;;;;;;;;;;15.90;85.40;;;;;;5039179;28;19983;-77
2022/10/10 11:40:27;;;;;;;;;;;16.00;85.50;;;;;;5039611;28;20043;-76
2022/10/10 11:42:56;;;;;;;;;;;16.10;85.20;;;;;;5042077;28;19976;-78
2022/10/10 11:45:25;;;;;;;;;;;16.20;85.00;;;;;;5039272;28;19987;-77
2022/10/10 11:47:55;;;;;;;;;;;16.30;84.70;;;;;;5041065;28;19976;-77
2022/10/10 11:50:26;;;;;;;;;;;16.40;84.50;;;;;;5031377;28;20015;-76
2022/10/10 11:52:56;;;;;;;;;;;16.40;84.40;;;;;;5042610;28;19976;-78
2022/10/10 11:55:25;;;;;;;;;;;16.50;84.30;;;;;;5034328;28;19983;-78
2022/10/10 11:57:54;;;;;;;;;;;16.50;83.90;;;;;;5042670;28;19975;-77
2022/10/10 12:00:21;;;;;;;;;;;16.60;83.80;;;;;;5037264;28;20433;-77
2022/10/10 12:02:48;;;;;;;;;;;16.70;83.70;;;;;;5035456;28;19983;-78
2022/10/10 12:05:20;;;;;;;;;;;16.70;83.30;;;;;;5039427;28;21000;-75
2022/10/10 12:07:51;;;;;;;;;;;16.80;83.20;;;;;;5041625;28;19998;-79
2022/10/10 12:10:20;;;;;;;;;;;16.90;83.10;;;;;;5041055;28;19999;-77
2022/10/10 12:12:49;;;;;;;;;;;16.90;83.00;;;;;;5041174;28;19975;-78
2022/10/10 12:15:24;;;;;;;;;;;17.00;82.70;;;;;;5040988;28;19979;-77
2022/10/10 12:17:51;;;;;;;;;;;17.00;82.50;;;;;;5035818;28;20014;-77
2022/10/10 12:20:30;;;;;;;;;;;17.10;82.40;;;;;;5041559;28;20082;-77
2022/10/10 12:23:19;;;;;;;;;;;17.10;82.30;;;;;;5037186;28;19971;-76
2022/10/10 12:25:46;;;;;;;;;;;17.20;81.60;;;;;;5036623;28;20390;-76
2022/10/10 12:28:23;;;;;;;;;;;17.30;81.60;;;;;;5041598;28;20725;-78
2022/10/10 12:31:11;;;;;;;;;;;17.40;81.10;;;;;;5037426;28;20557;-78
2022/10/10 12:33:56;;;;;;;;;;;17.40;81.20;;;;;;5035763;28;19983;-77
2022/10/10 12:36:40;;;;;;;;;;;17.50;81.10;;;;;;5042211;28;19975;-79
2022/10/10 12:39:21;;;;;;;;;;;17.50;80.70;;;;;;5041776;28;20002;-77
2022/10/10 12:41:56;;;;;;;;;;;17.60;80.50;;;;;;5035578;28;19980;-78
2022/10/10 12:44:23;;;;;;;;;;;17.70;79.40;;;;;;5041137;28;19998;-78
2022/10/10 12:47:04;;;;;;;;;;;17.70;79.20;;;;;;5042019;28;19995;-78
2022/10/10 12:49:31;;;;;;;;;;;17.80;79.50;;;;;;5040378;28;19999;-78
2022/10/10 12:52:03;;;;;;;;;;;17.80;79.60;;;;;;5043817;28;20466;-77
2022/10/10 12:54:32;;;;;;;;;;;17.80;79.40;;;;;;5037308;28;19980;-77
2022/10/10 12:57:07;;;;;;;;;;;17.90;79.20;;;;;;5039820;28;19987;-77
2022/10/10 12:59:35;;;;;;;;;;;18.00;79.20;;;;;;5040877;28;19991;-77
2022/10/10 13:02:04;;;;;;;;;;;18.00;79.10;;;;;;5038094;28;19999;-78
2022/10/10 13:04:32;;;;;;;;;;;18.10;78.90;;;;;;5036252;28;20010;-77
2022/10/10 13:07:00;;;;;;;;;;;18.10;78.70;;;;;;5041664;28;19980;-77
2022/10/10 13:09:29;;;;;;;;;;;18.20;78.20;;;;;;5038821;28;20474;-76
2022/10/10 13:11:57;;;;;;;;;;;18.20;78.00;;;;;;5038421;28;20682;-77
2022/10/10 13:14:25;;;;;;;;;;;18.30;77.30;;;;;;5038033;28;19972;-78
2022/10/10 13:16:52;;;;;;;;;;;18.30;77.60;;;;;;5040619;28;19988;-77
2022/10/10 13:19:20;;;;;;;;;;;18.30;77.60;;;;;;5039336;28;20086;-77
2022/10/10 13:21:47;;;;;;;;;;;18.40;77.80;;;;;;5037182;28;20015;-78
2022/10/10 13:24:16;;;;;;;;;;;18.50;77.90;;;;;;5038953;28;20468;-76
2022/10/10 13:26:44;;;;;;;;;;;18.50;77.70;;;;;;5040993;28;20094;-76
2022/10/10 13:29:15;;;;;;;;;;;18.50;77.40;;;;;;5036100;28;19988;-68
2022/10/10 13:31:43;;;;;;;;;;;18.50;77.20;;;;;;5031721;28;19987;-69
2022/10/10 13:34:15;;;;;;;;;;;18.60;77.30;;;;;;5033442;28;20031;-69
2022/10/10 13:36:42;;;;;;;;;;;18.60;77.70;;;;;;5044758;28;19976;-69
2022/10/10 13:39:14;;;;;;;;;;;18.60;77.50;;;;;;5039536;28;20046;-69
2022/10/10 13:41:40;;;;;;;;;;;18.60;77.50;;;;;;5039403;28;19972;-70
2022/10/10 13:44:11;;;;;;;;;;;18.60;77.60;;;;;;5042733;28;23539;-70
2022/10/10 13:46:38;;;;;;;;;;;18.70;77.60;;;;;;5042577;28;20139;-70
2022/10/10 13:49:13;;;;;;;;;;;18.70;77.50;;;;;;5047385;28;19991;-70
2022/10/10 13:51:41;;;;;;;;;;;18.70;77.30;;;;;;5032748;28;19982;-71
2022/10/10 13:54:35;;;;;;;;;;;18.70;77.00;;;;;;5044252;28;20011;-70
2022/10/10 13:57:02;;;;;;;;;;;18.80;77.10;;;;;;5042734;28;19979;-70
2022/10/10 13:59:29;;;;;;;;;;;18.80;76.60;;;;;;5045370;28;20035;-70
2022/10/10 14:01:59;;;;;;;;;;;18.80;76.80;;;;;;5038617;28;20031;-77
2022/10/10 14:04:29;;;;;;;;;;;18.80;76.40;;;;;;5041862;28;20459;-71
2022/10/10 14:06:57;;;;;;;;;;;18.80;76.50;;;;;;5045175;28;19935;-73
2022/10/10 14:09:27;;;;;;;;;;;19.10;72.30;;;;;;5041482;28;20416;-74
2022/10/10 14:11:54;;;;;;;;;;;19.60;68.00;;;;;;5041753;28;19997;-74
2022/10/10 14:14:23;;;;;;;;;;;20.10;66.80;;;;;;5042114;28;19985;-76
2022/10/10 14:16:59;;;;;;;;;;;20.50;66.00;;;;;;5045093;28;19980;-76
2022/10/10 14:19:27;;;;;;;;;;;20.60;66.60;;;;;;5043993;28;20038;-76
2022/10/10 14:21:53;;;;;;;;;;;20.50;67.50;;;;;;5041389;28;19983;-76
2022/10/10 14:24:20;;;;;;;;;;;20.30;68.00;;;;;;5046245;28;19992;-76